Time;durP1;ratioP1;P1;durP2;ratioP2;P2;SDS_P1;SDS_P2;PMS_P1;PMS_P2;Temp;Humidity;BMP_temperature;BMP_pressure;BME280_temperature;BME280_humidity;BME280_pressure;Samples;Min_cycle;Max_cycle;Signal;HPM_P1;HPM_P2
2022/07/28 00:00:40;;;;;;;8.13;1.90;;;;;;;;;;5021828;28;20057;-64
2022/07/28 00:03:07;;;;;;;4.20;2.00;;;;;;;;;;5021967;28;20492;-64
2022/07/28 00:05:34;;;;;;;6.38;1.83;;;;;;;;;;5020363;28;20037;-63
2022/07/28 00:08:03;;;;;;;4.43;2.00;;;;;;;;;;5026063;28;20049;-63
2022/07/28 00:10:31;;;;;;;5.28;2.15;;;;;;;;;;5022745;28;20483;-64
2022/07/28 00:12:58;;;;;;;3.88;2.05;;;;;;;;;;5005987;28;20061;-64
2022/07/28 00:15:25;;;;;;;3.00;1.83;;;;;;;;;;5024383;28;20156;-64
2022/07/28 00:17:53;;;;;;;3.35;2.08;;;;;;;;;;5025981;28;20057;-64
2022/07/28 00:20:20;;;;;;;4.78;2.20;;;;;;;;;;5021935;28;20496;-64
2022/07/28 00:22:47;;;;;;;3.15;2.03;;;;;;;;;;5020187;28;20053;-64
2022/07/28 00:25:16;;;;;;;4.63;2.00;;;;;;;;;;5008014;28;20060;-63
2022/07/28 00:27:43;;;;;;;7.38;2.00;;;;;;;;;;5021843;28;20057;-64
2022/07/28 00:30:11;;;;;;;5.07;1.80;;;;;;;;;;5023260;28;20100;-63
2022/07/28 00:32:38;;;;;;;4.47;2.13;;;;;;;;;;5022919;28;20538;-64
2022/07/28 00:35:06;;;;;;;5.82;2.10;;;;;;;;;;5018852;28;20045;-64
2022/07/28 00:37:33;;;;;;;5.93;2.25;;;;;;;;;;5020056;28;20054;-65
2022/07/28 00:40:00;;;;;;;4.55;2.20;;;;;;;;;;5024228;28;20049;-64
2022/07/28 00:42:28;;;;;;;4.82;2.20;;;;;;;;;;5023478;28;20057;-64
2022/07/28 00:44:56;;;;;;;6.38;2.17;;;;;;;;;;5022998;28;20073;-64
2022/07/28 00:47:23;;;;;;;4.25;2.33;;;;;;;;;;5020460;28;20523;-64
2022/07/28 00:49:50;;;;;;;4.78;2.33;;;;;;;;;;5023747;28;20743;-64
2022/07/28 00:52:18;;;;;;;7.53;2.10;;;;;;;;;;5012377;28;20057;-64
2022/07/28 00:54:45;;;;;;;7.18;2.15;;;;;;;;;;5018631;28;20092;-64
2022/07/28 00:57:12;;;;;;;5.00;2.28;;;;;;;;;;5020665;28;20049;-63
2022/07/28 00:59:41;;;;;;;4.25;2.00;;;;;;;;;;5020262;28;20061;-64
2022/07/28 01:02:08;;;;;;;4.80;2.17;;;;;;;;;;5020055;28;20049;-64
2022/07/28 01:04:36;;;;;;;5.35;1.80;;;;;;;;;;5020271;28;20574;-64
2022/07/28 01:07:09;;;;;;;8.70;1.70;;;;;;;;;;5023732;28;20497;-63
2022/07/28 01:09:45;;;;;;;4.32;1.95;;;;;;;;;;5019295;28;20049;-64
2022/07/28 01:12:15;;;;;;;5.55;1.80;;;;;;;;;;5018472;28;20486;-63
2022/07/28 01:14:45;;;;;;;4.97;1.77;;;;;;;;;;5021676;28;20844;-64
2022/07/28 01:17:17;;;;;;;5.63;2.30;;;;;;;;;;5017026;28;20054;-64
2022/07/28 01:19:48;;;;;;;3.70;1.77;;;;;;;;;;5023914;28;20054;-63
2022/07/28 01:22:17;;;;;;;4.15;2.10;;;;;;;;;;5020713;28;20049;-63
2022/07/28 01:24:56;;;;;;;4.07;2.10;;;;;;;;;;5020344;28;20045;-63
2022/07/28 01:27:29;;;;;;;5.60;2.10;;;;;;;;;;5016965;28;20628;-64
2022/07/28 01:30:04;;;;;;;6.82;2.10;;;;;;;;;;5018665;28;20060;-64
2022/07/28 01:32:36;;;;;;;4.22;1.67;;;;;;;;;;5021588;28;20497;-63
2022/07/28 01:35:08;;;;;;;6.63;1.60;;;;;;;;;;5021034;28;20425;-64
2022/07/28 01:37:35;;;;;;;2.78;1.70;;;;;;;;;;5018624;28;20046;-63
2022/07/28 01:40:05;;;;;;;4.45;1.75;;;;;;;;;;5021848;28;20061;-63
2022/07/28 01:42:35;;;;;;;2.85;1.67;;;;;;;;;;5002699;28;20069;-64
2022/07/28 01:45:03;;;;;;;5.13;1.60;;;;;;;;;;5017737;28;20064;-64
2022/07/28 01:47:32;;;;;;;4.57;2.22;;;;;;;;;;5021997;28;20084;-63
2022/07/28 01:50:03;;;;;;;6.05;2.13;;;;;;;;;;5024155;28;20725;-63
2022/07/28 01:52:30;;;;;;;4.13;1.60;;;;;;;;;;5021373;28;20100;-63
2022/07/28 01:54:58;;;;;;;3.95;1.70;;;;;;;;;;5024599;28;20072;-64
2022/07/28 01:57:26;;;;;;;6.22;1.95;;;;;;;;;;5025644;28;20107;-63
2022/07/28 01:59:54;;;;;;;2.47;1.55;;;;;;;;;;5003264;28;20062;-63
2022/07/28 02:02:21;;;;;;;4.10;1.65;;;;;;;;;;5022037;28;20057;-64
2022/07/28 02:04:49;;;;;;;4.70;1.50;;;;;;;;;;5025341;28;20069;-64
2022/07/28 02:07:19;;;;;;;3.75;2.10;;;;;;;;;;5024477;28;20037;-64
2022/07/28 02:09:47;;;;;;;4.70;1.88;;;;;;;;;;5006450;28;20049;-64
2022/07/28 02:12:16;;;;;;;8.43;1.90;;;;;;;;;;5023700;28;20415;-64
2022/07/28 02:14:43;;;;;;;7.85;1.90;;;;;;;;;;5026247;28;20144;-64
2022/07/28 02:17:12;;;;;;;4.13;1.80;;;;;;;;;;5020350;28;20050;-64
2022/07/28 02:19:41;;;;;;;6.90;2.10;;;;;;;;;;5014969;28;20053;-64
2022/07/28 02:22:09;;;;;;;3.42;1.75;;;;;;;;;;5023417;28;20064;-64
2022/07/28 02:24:38;;;;;;;5.85;2.22;;;;;;;;;;5019591;28;20124;-63
2022/07/28 02:27:13;;;;;;;4.20;2.30;;;;;;;;;;5024267;28;20049;-64
2022/07/28 02:29:44;;;;;;;4.82;2.10;;;;;;;;;;5027293;28;20053;-64
2022/07/28 02:32:15;;;;;;;3.22;2.20;;;;;;;;;;5025219;28;20708;-64
2022/07/28 02:34:43;;;;;;;5.38;2.40;;;;;;;;;;5023193;28;20048;-64
2022/07/28 02:37:11;;;;;;;4.95;2.50;;;;;;;;;;5004456;28;20132;-63
2022/07/28 02:39:43;;;;;;;5.72;2.53;;;;;;;;;;5026076;28;20049;-64
2022/07/28 02:42:13;;;;;;;5.05;2.35;;;;;;;;;;5025802;28;20058;-64
2022/07/28 02:44:43;;;;;;;5.70;2.58;;;;;;;;;;5006959;28;20065;-64
2022/07/28 02:47:11;;;;;;;4.55;2.40;;;;;;;;;;5022244;28;20529;-64
2022/07/28 02:49:40;;;;;;;7.25;2.88;;;;;;;;;;5021897;28;20080;-63
2022/07/28 02:52:08;;;;;;;5.50;2.30;;;;;;;;;;5025088;28;20061;-63
2022/07/28 02:54:36;;;;;;;7.53;2.58;;;;;;;;;;5025899;28;20052;-64
2022/07/28 02:57:05;;;;;;;4.90;2.33;;;;;;;;;;5022248;28;20057;-64
2022/07/28 02:59:33;;;;;;;4.43;2.25;;;;;;;;;;5020913;28;20401;-63
2022/07/28 03:02:00;;;;;;;5.32;2.20;;;;;;;;;;5024243;28;20057;-64
2022/07/28 03:07:13;;;;;;;3.85;2.10;;;;;;;;;;5021650;28;20052;-64
2022/07/28 03:09:41;;;;;;;3.35;1.92;;;;;;;;;;5024860;28;20442;-63
2022/07/28 03:12:10;;;;;;;3.95;1.98;;;;;;;;;;5019025;28;20068;-63
2022/07/28 03:14:37;;;;;;;4.15;2.17;;;;;;;;;;5024264;28;20057;-63
2022/07/28 03:17:04;;;;;;;4.20;2.30;;;;;;;;;;5018119;28;20045;-63
2022/07/28 03:19:32;;;;;;;3.28;1.88;;;;;;;;;;5022243;28;20049;-63
2022/07/28 03:21:59;;;;;;;3.97;2.33;;;;;;;;;;5022223;28;20053;-64
2022/07/28 03:24:28;;;;;;;4.05;2.25;;;;;;;;;;5002900;28;20049;-64
2022/07/28 03:26:59;;;;;;;4.75;1.90;;;;;;;;;;5016255;28;20049;-64
2022/07/28 03:29:29;;;;;;;5.50;1.98;;;;;;;;;;5008016;28;20120;-64
2022/07/28 03:31:58;;;;;;;4.32;2.00;;;;;;;;;;5020249;28;20408;-63
2022/07/28 03:34:25;;;;;;;4.43;2.13;;;;;;;;;;5017388;28;20053;-64
2022/07/28 03:36:55;;;;;;;3.88;2.20;;;;;;;;;;5023267;28;20053;-64
2022/07/28 03:39:24;;;;;;;4.75;1.98;;;;;;;;;;5020790;28;20053;-64
2022/07/28 03:41:53;;;;;;;3.10;1.77;;;;;;;;;;5013344;28;20131;-64
2022/07/28 03:44:20;;;;;;;4.53;2.20;;;;;;;;;;5013901;28;20077;-64
2022/07/28 03:46:49;;;;;;;3.85;1.98;;;;;;;;;;5001996;28;20080;-63
2022/07/28 03:49:16;;;;;;;4.57;1.90;;;;;;;;;;5016971;28;20053;-63
2022/07/28 03:51:43;;;;;;;4.40;1.75;;;;;;;;;;5002003;28;20112;-64
2022/07/28 03:54:12;;;;;;;3.05;1.88;;;;;;;;;;5019822;28;20152;-64
2022/07/28 03:56:39;;;;;;;6.07;2.10;;;;;;;;;;5022468;28;20050;-64
2022/07/28 03:59:06;;;;;;;5.68;1.95;;;;;;;;;;5018218;28;20134;-63
2022/07/28 04:01:33;;;;;;;5.03;2.28;;;;;;;;;;5016641;28;20416;-63
2022/07/28 04:04:02;;;;;;;6.53;2.38;;;;;;;;;;5020394;28;20050;-63
2022/07/28 04:06:29;;;;;;;4.35;2.20;;;;;;;;;;5015421;28;20050;-64
2022/07/28 04:08:57;;;;;;;5.85;2.10;;;;;;;;;;5010534;28;20049;-63
2022/07/28 04:11:24;;;;;;;4.20;1.92;;;;;;;;;;5025237;28;20089;-64
2022/07/28 04:13:51;;;;;;;5.90;2.13;;;;;;;;;;5018843;28;20108;-63
2022/07/28 04:16:18;;;;;;;3.78;1.80;;;;;;;;;;5023012;28;20056;-63
2022/07/28 04:18:46;;;;;;;3.47;1.90;;;;;;;;;;5022111;28;20235;-64
2022/07/28 04:21:17;;;;;;;4.47;2.33;;;;;;;;;;5021498;28;20088;-63
2022/07/28 04:23:44;;;;;;;7.47;2.40;;;;;;;;;;5018276;28;20107;-64
2022/07/28 04:26:12;;;;;;;5.18;2.08;;;;;;;;;;5019668;28;20049;-64
2022/07/28 04:28:39;;;;;;;3.88;2.00;;;;;;;;;;5005759;28;20143;-63
2022/07/28 04:31:06;;;;;;;7.35;2.60;;;;;;;;;;5022999;28;20708;-63
2022/07/28 04:33:34;;;;;;;3.88;2.00;;;;;;;;;;5019214;28;20057;-63
2022/07/28 04:36:01;;;;;;;5.45;2.20;;;;;;;;;;5020680;28;20575;-64
2022/07/28 04:38:30;;;;;;;3.70;2.10;;;;;;;;;;5017810;28;20042;-64
2022/07/28 04:40:57;;;;;;;4.13;2.47;;;;;;;;;;5023295;28;20692;-64
2022/07/28 04:43:25;;;;;;;3.13;2.13;;;;;;;;;;5018956;28;20049;-63
2022/07/28 04:45:52;;;;;;;6.72;2.20;;;;;;;;;;5019601;28;20404;-63
2022/07/28 04:48:20;;;;;;;3.83;2.25;;;;;;;;;;5000145;28;20561;-64
2022/07/28 04:50:48;;;;;;;5.05;2.08;;;;;;;;;;5013910;28;20061;-63
2022/07/28 04:53:17;;;;;;;4.30;2.33;;;;;;;;;;5020782;28;20050;-63
2022/07/28 04:55:45;;;;;;;5.82;2.10;;;;;;;;;;5025149;28;20540;-64
2022/07/28 04:58:12;;;;;;;8.38;2.20;;;;;;;;;;5007875;28;20060;-63
2022/07/28 05:00:40;;;;;;;3.97;2.10;;;;;;;;;;5022623;28;20053;-63
2022/07/28 05:03:07;;;;;;;7.20;2.00;;;;;;;;;;5022230;28;20141;-64
2022/07/28 05:05:34;;;;;;;6.07;2.45;;;;;;;;;;5021009;28;20072;-64
2022/07/28 05:08:01;;;;;;;6.78;2.10;;;;;;;;;;5025461;28;20052;-64
2022/07/28 05:10:28;;;;;;;8.45;2.50;;;;;;;;;;5023095;28;20053;-64
2022/07/28 05:12:57;;;;;;;9.38;2.15;;;;;;;;;;5023810;28;20548;-63
2022/07/28 05:15:24;;;;;;;18.75;5.65;;;;;;;;;;5021955;28;20045;-64
2022/07/28 05:17:51;;;;;;;6.80;2.63;;;;;;;;;;5016586;28;20062;-64
2022/07/28 05:20:19;;;;;;;7.80;2.33;;;;;;;;;;5025342;28;20053;-64
2022/07/28 05:22:47;;;;;;;8.88;2.42;;;;;;;;;;5021737;28;20065;-64
2022/07/28 05:25:18;;;;;;;11.77;2.25;;;;;;;;;;5025648;28;20060;-64
2022/07/28 05:27:45;;;;;;;10.82;2.38;;;;;;;;;;5021724;28;20049;-64
2022/07/28 05:30:14;;;;;;;13.13;2.28;;;;;;;;;;5020296;28;20057;-64
2022/07/28 05:32:42;;;;;;;9.20;2.15;;;;;;;;;;5027474;28;20050;-64
2022/07/28 05:35:09;;;;;;;7.63;2.00;;;;;;;;;;5027752;28;20049;-64
2022/07/28 05:37:37;;;;;;;8.10;2.40;;;;;;;;;;5002830;28;20057;-64
2022/07/28 05:40:05;;;;;;;9.07;1.75;;;;;;;;;;5026273;28;20053;-64
2022/07/28 05:42:34;;;;;;;5.47;1.83;;;;;;;;;;5024569;28;20541;-64
2022/07/28 05:45:03;;;;;;;6.90;2.10;;;;;;;;;;5007248;28;20522;-64
2022/07/28 05:47:31;;;;;;;11.20;1.73;;;;;;;;;;5018614;28;20062;-63
2022/07/28 05:50:02;;;;;;;4.88;1.50;;;;;;;;;;5021627;28;20732;-64
2022/07/28 05:52:31;;;;;;;9.45;1.80;;;;;;;;;;5019231;28;20060;-64
2022/07/28 05:54:58;;;;;;;5.72;1.70;;;;;;;;;;5022455;28;20082;-64
2022/07/28 05:57:25;;;;;;;6.30;1.50;;;;;;;;;;5003251;28;20132;-64
2022/07/28 05:59:53;;;;;;;5.07;1.40;;;;;;;;;;5020002;28;20057;-65
2022/07/28 06:02:20;;;;;;;6.93;2.00;;;;;;;;;;5022956;28;20698;-64
2022/07/28 06:04:48;;;;;;;4.35;1.48;;;;;;;;;;5006510;28;20049;-64
2022/07/28 06:07:16;;;;;;;5.32;1.55;;;;;;;;;;5021213;28;20054;-64
2022/07/28 06:09:43;;;;;;;3.40;1.65;;;;;;;;;;5021571;28;20115;-64
2022/07/28 06:12:10;;;;;;;6.75;1.88;;;;;;;;;;5026961;28;20064;-64
2022/07/28 06:14:37;;;;;;;5.78;1.90;;;;;;;;;;5002081;28;20061;-64
2022/07/28 06:17:04;;;;;;;4.88;1.90;;;;;;;;;;5009629;28;20057;-64
2022/07/28 06:19:32;;;;;;;3.10;1.80;;;;;;;;;;5022580;28;20505;-64
2022/07/28 06:22:02;;;;;;;11.25;1.80;;;;;;;;;;5028573;28;20758;-64
2022/07/28 06:24:29;;;;;;;6.13;2.00;;;;;;;;;;5025664;28;20143;-64
2022/07/28 06:26:56;;;;;;;8.85;2.00;;;;;;;;;;5009571;28;20107;-64
2022/07/28 06:29:24;;;;;;;5.35;1.83;;;;;;;;;;5025776;28;20049;-65
2022/07/28 06:31:51;;;;;;;6.65;2.00;;;;;;;;;;5026744;28;20111;-64
2022/07/28 06:34:18;;;;;;;5.53;2.10;;;;;;;;;;5017329;28;20045;-64
2022/07/28 06:36:46;;;;;;;6.47;1.85;;;;;;;;;;5021265;28;20129;-64
2022/07/28 06:39:14;;;;;;;4.88;1.60;;;;;;;;;;5023360;28;20080;-64
2022/07/28 06:41:43;;;;;;;7.97;1.60;;;;;;;;;;5019755;28;20045;-64
2022/07/28 06:44:10;;;;;;;5.13;1.80;;;;;;;;;;5016387;28;20049;-64
2022/07/28 06:46:38;;;;;;;5.05;1.10;;;;;;;;;;5022554;28;20130;-64
2022/07/28 06:49:05;;;;;;;4.95;1.38;;;;;;;;;;4999949;28;20057;-64
2022/07/28 06:51:32;;;;;;;3.95;1.88;;;;;;;;;;5006742;28;20053;-64
2022/07/28 06:54:00;;;;;;;4.57;2.22;;;;;;;;;;5009641;28;20060;-64
2022/07/28 06:56:28;;;;;;;5.70;1.90;;;;;;;;;;5022880;28;20041;-64
2022/07/28 06:58:55;;;;;;;3.88;1.90;;;;;;;;;;5023433;28;20062;-64
2022/07/28 07:01:22;;;;;;;3.90;1.70;;;;;;;;;;5018698;28;20092;-64
2022/07/28 07:03:50;;;;;;;4.38;1.83;;;;;;;;;;5020265;28;20076;-64
2022/07/28 07:06:17;;;;;;;4.72;1.90;;;;;;;;;;5013512;28;20111;-64
2022/07/28 07:08:46;;;;;;;6.55;2.00;;;;;;;;;;5019339;28;20409;-64
2022/07/28 07:11:13;;;;;;;5.88;1.92;;;;;;;;;;5023357;28;20072;-64
2022/07/28 07:13:41;;;;;;;4.78;1.52;;;;;;;;;;5023322;28;20074;-64
2022/07/28 07:16:09;;;;;;;4.95;1.85;;;;;;;;;;5021454;28;20041;-65
2022/07/28 07:18:36;;;;;;;6.85;2.03;;;;;;;;;;5025742;28;20054;-64
2022/07/28 07:21:03;;;;;;;4.32;1.33;;;;;;;;;;5020183;28;20065;-64
2022/07/28 07:23:30;;;;;;;10.55;2.05;;;;;;;;;;5022077;28;20399;-65
2022/07/28 07:25:58;;;;;;;5.85;1.85;;;;;;;;;;5017797;28;20104;-64
2022/07/28 07:28:25;;;;;;;3.92;1.17;;;;;;;;;;5022360;28;20526;-65
2022/07/28 07:30:53;;;;;;;7.30;1.70;;;;;;;;;;5017402;28;20080;-64
2022/07/28 07:33:21;;;;;;;2.70;1.10;;;;;;;;;;5003118;28;20064;-64
2022/07/28 07:35:48;;;;;;;4.80;1.70;;;;;;;;;;5002787;28;20459;-64
2022/07/28 07:38:15;;;;;;;5.53;1.50;;;;;;;;;;5023561;28;20079;-65
2022/07/28 07:40:43;;;;;;;4.60;1.60;;;;;;;;;;5004891;28;20058;-64
2022/07/28 07:43:10;;;;;;;6.93;1.70;;;;;;;;;;5023352;28;20056;-64
2022/07/28 07:45:37;;;;;;;5.22;1.75;;;;;;;;;;5019458;28;20046;-65
2022/07/28 07:48:06;;;;;;;7.57;1.30;;;;;;;;;;5006032;28;20103;-64
2022/07/28 07:50:34;;;;;;;4.47;1.40;;;;;;;;;;5017250;28;20488;-64
2022/07/28 07:53:01;;;;;;;2.83;1.30;;;;;;;;;;5023820;28;20049;-64
2022/07/28 07:55:28;;;;;;;3.85;1.58;;;;;;;;;;5023244;28;20054;-65
2022/07/28 07:57:56;;;;;;;3.10;1.17;;;;;;;;;;5025506;28;20057;-65
2022/07/28 08:00:23;;;;;;;5.78;1.30;;;;;;;;;;5021280;28;20045;-64
2022/07/28 08:02:50;;;;;;;4.28;1.13;;;;;;;;;;5018997;28;20163;-65
2022/07/28 08:05:19;;;;;;;6.75;1.15;;;;;;;;;;5022043;28;20056;-64
2022/07/28 08:07:46;;;;;;;6.65;1.00;;;;;;;;;;5003699;28;20444;-64
2022/07/28 08:10:13;;;;;;;3.17;0.80;;;;;;;;;;4997850;28;20136;-64
2022/07/28 08:12:41;;;;;;;4.72;1.10;;;;;;;;;;5014035;28;20096;-65
2022/07/28 08:15:09;;;;;;;3.83;1.10;;;;;;;;;;5020201;28;20129;-64
2022/07/28 08:17:36;;;;;;;4.88;1.25;;;;;;;;;;5021174;28;20065;-64
2022/07/28 08:20:03;;;;;;;3.97;1.13;;;;;;;;;;5019650;28;20049;-65
2022/07/28 08:22:32;;;;;;;3.08;1.08;;;;;;;;;;5023662;28;20451;-64
2022/07/28 08:25:00;;;;;;;3.72;0.88;;;;;;;;;;5024049;28;20135;-64
2022/07/28 08:27:27;;;;;;;2.85;0.85;;;;;;;;;;5011476;28;20128;-64
2022/07/28 08:29:55;;;;;;;4.13;0.90;;;;;;;;;;5022732;28;20512;-65
2022/07/28 08:32:22;;;;;;;4.32;1.08;;;;;;;;;;4993124;28;20111;-65
2022/07/28 08:34:50;;;;;;;3.78;0.82;;;;;;;;;;4998118;28;20058;-64
2022/07/28 08:37:17;;;;;;;4.35;0.90;;;;;;;;;;5018250;28;20081;-65
2022/07/28 08:39:46;;;;;;;3.22;0.70;;;;;;;;;;5011942;28;20041;-64
2022/07/28 08:42:16;;;;;;;4.05;0.90;;;;;;;;;;5017746;28;20068;-64
2022/07/28 08:44:47;;;;;;;5.20;0.82;;;;;;;;;;5020588;28;20097;-64
2022/07/28 08:47:16;;;;;;;2.35;0.73;;;;;;;;;;5005851;28;20460;-65
2022/07/28 08:49:43;;;;;;;3.95;0.90;;;;;;;;;;5009553;28;20563;-64
2022/07/28 08:52:12;;;;;;;3.08;1.00;;;;;;;;;;4997894;28;20068;-64
2022/07/28 08:54:42;;;;;;;4.13;0.90;;;;;;;;;;5011424;28;20054;-65
2022/07/28 08:57:11;;;;;;;3.05;0.70;;;;;;;;;;5025870;28;20054;-64
2022/07/28 08:59:39;;;;;;;3.88;0.90;;;;;;;;;;5027041;28;20076;-64
2022/07/28 09:02:08;;;;;;;2.92;0.80;;;;;;;;;;5032294;28;20049;-64
2022/07/28 09:04:37;;;;;;;2.72;0.70;;;;;;;;;;5031548;28;20050;-64
2022/07/28 09:07:05;;;;;;;4.07;0.90;;;;;;;;;;5004762;28;20055;-65
2022/07/28 09:09:32;;;;;;;3.38;0.98;;;;;;;;;;5030812;28;20110;-64
2022/07/28 09:11:59;;;;;;;4.40;1.10;;;;;;;;;;5028505;28;20054;-64
2022/07/28 09:14:28;;;;;;;2.83;1.10;;;;;;;;;;5026707;28;20045;-64
2022/07/28 09:16:55;;;;;;;2.67;1.00;;;;;;;;;;5026887;28;20094;-64
2022/07/28 09:19:22;;;;;;;3.35;1.00;;;;;;;;;;5019653;28;20049;-65
2022/07/28 09:21:50;;;;;;;6.72;0.88;;;;;;;;;;5022408;28;20053;-64
2022/07/28 09:24:32;;;;;;;6.57;0.93;;;;;;;;;;5030218;28;20067;-65
2022/07/28 09:27:00;;;;;;;2.60;0.98;;;;;;;;;;5032608;28;20055;-64
2022/07/28 09:29:29;;;;;;;2.88;1.00;;;;;;;;;;5025115;28;20085;-65
2022/07/28 09:31:56;;;;;;;5.60;1.17;;;;;;;;;;5021004;28;20054;-65
2022/07/28 09:34:24;;;;;;;6.20;1.40;;;;;;;;;;5030224;28;20053;-65
2022/07/28 09:36:51;;;;;;;4.35;1.00;;;;;;;;;;5006714;28;20057;-64
2022/07/28 09:39:33;;;;;;;4.93;1.08;;;;;;;;;;5027551;28;20061;-64
2022/07/28 09:42:01;;;;;;;2.67;1.00;;;;;;;;;;5026826;28;20049;-65
2022/07/28 09:44:29;;;;;;;7.20;1.08;;;;;;;;;;5025005;28;20649;-64
2022/07/28 09:46:57;;;;;;;8.05;1.35;;;;;;;;;;5021117;28;20049;-65
2022/07/28 09:49:40;;;;;;;3.72;1.00;;;;;;;;;;5028675;28;20052;-65
2022/07/28 09:52:07;;;;;;;5.95;1.25;;;;;;;;;;5019956;28;20227;-64
2022/07/28 09:54:35;;;;;;;3.40;1.10;;;;;;;;;;5031302;28;20057;-65
2022/07/28 09:57:02;;;;;;;3.90;1.17;;;;;;;;;;5026268;28;20046;-64
2022/07/28 09:59:41;;;;;;;2.75;1.00;;;;;;;;;;5030012;28;20053;-64
2022/07/28 10:02:10;;;;;;;2.85;1.17;;;;;;;;;;5010944;28;20136;-64
2022/07/28 10:04:38;;;;;;;3.08;1.02;;;;;;;;;;5010996;28;20046;-64
2022/07/28 10:07:08;;;;;;;6.20;1.50;;;;;;;;;;5026152;28;20049;-65
2022/07/28 10:09:36;;;;;;;4.03;0.90;;;;;;;;;;5018076;28;20573;-64
2022/07/28 10:12:16;;;;;;;3.30;1.00;;;;;;;;;;5027672;28;20050;-64
2022/07/28 10:14:46;;;;;;;3.75;0.70;;;;;;;;;;5003915;28;20056;-65
2022/07/28 10:17:22;;;;;;;4.90;1.10;;;;;;;;;;5006759;28;20051;-64
2022/07/28 10:19:50;;;;;;;2.88;1.00;;;;;;;;;;5022251;28;20053;-65
2022/07/28 10:22:18;;;;;;;3.58;1.15;;;;;;;;;;5024872;28;20056;-64
2022/07/28 10:24:48;;;;;;;2.95;0.80;;;;;;;;;;5022686;28;20057;-65
2022/07/28 10:27:16;;;;;;;1.52;0.80;;;;;;;;;;5022604;28;20513;-64
2022/07/28 10:29:46;;;;;;;3.55;0.90;;;;;;;;;;5005640;28;20103;-64
2022/07/28 10:32:13;;;;;;;3.63;1.02;;;;;;;;;;5025771;28;20049;-64
2022/07/28 10:34:49;;;;;;;2.15;0.82;;;;;;;;;;5021227;28;20057;-64
2022/07/28 10:37:19;;;;;;;4.13;0.95;;;;;;;;;;5025276;28;20440;-65
2022/07/28 10:39:49;;;;;;;4.75;1.00;;;;;;;;;;5026605;28;20128;-64
2022/07/28 10:42:16;;;;;;;2.05;0.70;;;;;;;;;;5025457;28;20057;-65
2022/07/28 10:44:45;;;;;;;4.20;0.70;;;;;;;;;;5025269;28;20132;-64
2022/07/28 10:47:13;;;;;;;1.65;0.70;;;;;;;;;;5004368;28;20214;-65
2022/07/28 10:49:42;;;;;;;2.20;0.68;;;;;;;;;;5023156;28;20107;-65
2022/07/28 10:52:10;;;;;;;2.10;0.80;;;;;;;;;;5017800;28;20076;-65
2022/07/28 10:54:43;;;;;;;1.48;0.50;;;;;;;;;;5027792;28;20049;-64
2022/07/28 10:57:11;;;;;;;1.85;0.80;;;;;;;;;;5023925;28;20483;-65
2022/07/28 10:59:47;;;;;;;2.28;0.80;;;;;;;;;;5026562;28;20099;-64
2022/07/28 11:02:29;;;;;;;2.05;0.70;;;;;;;;;;5023638;28;20045;-65
2022/07/28 11:05:00;;;;;;;2.20;0.70;;;;;;;;;;5017025;28;20536;-64
2022/07/28 11:07:38;;;;;;;1.48;0.68;;;;;;;;;;5024752;28;20045;-64
2022/07/28 11:10:18;;;;;;;1.55;0.90;;;;;;;;;;5021573;28;20503;-65
2022/07/28 11:12:47;;;;;;;1.00;0.57;;;;;;;;;;5023065;28;20046;-65
2022/07/28 11:15:29;;;;;;;1.23;0.60;;;;;;;;;;5006947;28;20489;-65
2022/07/28 11:18:00;;;;;;;2.40;1.08;;;;;;;;;;5015465;28;20168;-65
2022/07/28 11:20:45;;;;;;;1.88;0.55;;;;;;;;;;5022249;28;20479;-64
2022/07/28 11:23:32;;;;;;;2.08;0.75;;;;;;;;;;5005684;28;20580;-64
2022/07/28 11:26:14;;;;;;;1.40;0.70;;;;;;;;;;5009350;28;20053;-65
2022/07/28 11:28:56;;;;;;;1.80;0.70;;;;;;;;;;5017411;28;20057;-65
2022/07/28 11:31:56;;;;;;;1.65;0.65;;;;;;;;;;5002115;28;20053;-65
2022/07/28 11:34:25;;;;;;;2.17;0.63;;;;;;;;;;5021428;28;20045;-65
2022/07/28 11:36:59;;;;;;;3.15;0.70;;;;;;;;;;5022422;28;20051;-65
2022/07/28 11:39:26;;;;;;;1.10;0.60;;;;;;;;;;5011165;28;20459;-65
2022/07/28 11:41:54;;;;;;;2.42;0.80;;;;;;;;;;5013146;28;20046;-65
2022/07/28 11:44:24;;;;;;;2.20;0.80;;;;;;;;;;5022006;28;20053;-65
2022/07/28 11:46:53;;;;;;;2.05;0.80;;;;;;;;;;5008029;28;20465;-64
2022/07/28 11:49:22;;;;;;;2.20;0.80;;;;;;;;;;5013299;28;20046;-65
2022/07/28 11:52:08;;;;;;;2.35;0.70;;;;;;;;;;5018550;28;20057;-65
2022/07/28 11:54:36;;;;;;;2.80;0.82;;;;;;;;;;5005443;28;20053;-65
2022/07/28 11:57:04;;;;;;;1.42;0.80;;;;;;;;;;4999849;28;20397;-65
2022/07/28 11:59:41;;;;;;;2.00;0.82;;;;;;;;;;5025386;28;20504;-64
2022/07/28 12:02:09;;;;;;;1.75;0.80;;;;;;;;;;5014208;28;20053;-65
2022/07/28 12:04:37;;;;;;;2.50;1.17;;;;;;;;;;5018035;28;20065;-65
2022/07/28 12:07:04;;;;;;;3.97;0.80;;;;;;;;;;5019134;28;20053;-65
2022/07/28 12:09:32;;;;;;;7.82;1.02;;;;;;;;;;5023918;28;20099;-65
2022/07/28 12:12:00;;;;;;;2.13;0.80;;;;;;;;;;5018299;28;20765;-65
2022/07/28 12:14:27;;;;;;;5.57;0.80;;;;;;;;;;5018830;28;20053;-65
2022/07/28 12:16:55;;;;;;;2.42;0.93;;;;;;;;;;5021491;28;20060;-64
2022/07/28 12:19:23;;;;;;;2.30;0.63;;;;;;;;;;5004867;28;20049;-65
2022/07/28 12:21:51;;;;;;;2.25;1.00;;;;;;;;;;5020508;28;20085;-65
2022/07/28 12:24:19;;;;;;;2.47;0.68;;;;;;;;;;5022810;28;20104;-65
2022/07/28 12:26:47;;;;;;;1.58;0.80;;;;;;;;;;5023711;28;20041;-64
2022/07/28 12:29:14;;;;;;;2.55;0.90;;;;;;;;;;5025547;28;20045;-65
2022/07/28 12:31:52;;;;;;;1.92;0.80;;;;;;;;;;5023743;28;20128;-65
2022/07/28 12:34:20;;;;;;;2.85;0.82;;;;;;;;;;5024754;28;20045;-65
2022/07/28 12:36:49;;;;;;;1.70;0.90;;;;;;;;;;5025321;28;20064;-65
2022/07/28 12:39:17;;;;;;;1.50;0.82;;;;;;;;;;5024506;28;20057;-65
2022/07/28 12:41:44;;;;;;;3.65;0.70;;;;;;;;;;5004102;28;20389;-65
2022/07/28 12:44:11;;;;;;;1.45;0.80;;;;;;;;;;5006067;28;20049;-65
2022/07/28 12:46:39;;;;;;;1.67;0.70;;;;;;;;;;5016650;28;20045;-65
2022/07/28 12:49:19;;;;;;;4.00;0.65;;;;;;;;;;5019189;28;20484;-65
2022/07/28 12:51:46;;;;;;;3.47;0.90;;;;;;;;;;5020570;28;20061;-65
2022/07/28 12:54:15;;;;;;;6.93;1.05;;;;;;;;;;5019376;28;20050;-65
2022/07/28 12:56:46;;;;;;;6.13;1.13;;;;;;;;;;5024152;28;20053;-64
2022/07/28 12:59:13;;;;;;;3.67;0.90;;;;;;;;;;5025289;28;20049;-64
2022/07/28 13:01:47;;;;;;;6.57;0.80;;;;;;;;;;5017440;28;20058;-65
2022/07/28 13:04:14;;;;;;;2.15;0.93;;;;;;;;;;5020596;28;20053;-65
2022/07/28 13:06:41;;;;;;;3.33;0.80;;;;;;;;;;4997947;28;20053;-65
2022/07/28 13:09:09;;;;;;;4.93;0.77;;;;;;;;;;5019124;28;20053;-65
2022/07/28 13:11:37;;;;;;;2.45;0.80;;;;;;;;;;5016452;28;20108;-65
2022/07/28 13:14:05;;;;;;;2.63;0.93;;;;;;;;;;5017573;28;20140;-65
2022/07/28 13:16:33;;;;;;;2.40;0.70;;;;;;;;;;5020428;28;20872;-65
2022/07/28 13:19:04;;;;;;;2.60;0.85;;;;;;;;;;5005830;28;20096;-65
2022/07/28 13:21:39;;;;;;;2.78;0.90;;;;;;;;;;5017205;28;20055;-65
2022/07/28 13:24:08;;;;;;;1.90;0.70;;;;;;;;;;5019067;28;20041;-65
2022/07/28 13:26:37;;;;;;;3.55;0.73;;;;;;;;;;5001609;28;20054;-65
2022/07/28 13:29:05;;;;;;;1.65;0.75;;;;;;;;;;5019046;28;20050;-64
2022/07/28 13:31:34;;;;;;;4.32;0.80;;;;;;;;;;5011263;28;20057;-65
2022/07/28 13:34:01;;;;;;;6.63;0.93;;;;;;;;;;4995814;28;20089;-65
2022/07/28 13:36:29;;;;;;;2.10;0.80;;;;;;;;;;4999056;28;20662;-65
2022/07/28 13:38:56;;;;;;;1.83;0.60;;;;;;;;;;5015015;28;20049;-65
2022/07/28 13:41:23;;;;;;;1.17;0.63;;;;;;;;;;5018975;28;20077;-65
2022/07/28 13:43:53;;;;;;;2.50;0.80;;;;;;;;;;5025022;28;20719;-65
2022/07/28 13:46:20;;;;;;;2.35;0.88;;;;;;;;;;5021649;28;20053;-65
2022/07/28 13:48:47;;;;;;;2.92;0.80;;;;;;;;;;5008628;28;20139;-64
2022/07/28 13:51:15;;;;;;;2.35;0.90;;;;;;;;;;5027620;28;20056;-65
2022/07/28 13:53:42;;;;;;;1.52;0.75;;;;;;;;;;5027088;28;20053;-65
2022/07/28 13:56:09;;;;;;;2.22;0.70;;;;;;;;;;5006254;28;20053;-65
2022/07/28 13:58:38;;;;;;;2.95;0.75;;;;;;;;;;5006860;28;20107;-65
2022/07/28 14:01:06;;;;;;;2.85;0.88;;;;;;;;;;5026455;28;20053;-65
2022/07/28 14:03:33;;;;;;;1.38;0.60;;;;;;;;;;5017162;28;20056;-65
2022/07/28 14:06:01;;;;;;;5.30;1.10;;;;;;;;;;5029356;28;20681;-65
2022/07/28 14:08:28;;;;;;;3.85;0.80;;;;;;;;;;5018524;28;20052;-65
2022/07/28 14:10:57;;;;;;;3.42;0.90;;;;;;;;;;5004625;28;20061;-66
2022/07/28 14:13:25;;;;;;;4.57;1.00;;;;;;;;;;5019220;28;20085;-65
2022/07/28 14:15:52;;;;;;;1.92;0.82;;;;;;;;;;5018248;28;20050;-65
2022/07/28 14:18:21;;;;;;;2.72;0.88;;;;;;;;;;5021250;28;20079;-65
2022/07/28 14:20:48;;;;;;;3.20;0.70;;;;;;;;;;5001532;28;20061;-65
2022/07/28 14:23:15;;;;;;;3.30;0.73;;;;;;;;;;5019194;28;20061;-65
2022/07/28 14:25:42;;;;;;;2.45;0.85;;;;;;;;;;5027198;28;20100;-65
2022/07/28 14:28:10;;;;;;;1.20;0.80;;;;;;;;;;5021595;28;20488;-65
2022/07/28 14:30:37;;;;;;;2.50;1.00;;;;;;;;;;5022621;28;20133;-65
2022/07/28 14:33:05;;;;;;;2.92;0.80;;;;;;;;;;5023603;28;20515;-65
2022/07/28 14:35:34;;;;;;;1.83;0.88;;;;;;;;;;5025190;28;20070;-65
2022/07/28 14:38:04;;;;;;;2.17;0.82;;;;;;;;;;5024015;28;20491;-65
2022/07/28 14:40:31;;;;;;;4.05;1.00;;;;;;;;;;5024475;28;20132;-66
2022/07/28 14:42:58;;;;;;;3.35;1.00;;;;;;;;;;5025282;28;20067;-66
2022/07/28 14:45:25;;;;;;;3.30;1.00;;;;;;;;;;5024984;28;20058;-65
2022/07/28 14:47:54;;;;;;;3.42;1.00;;;;;;;;;;5027150;28;20139;-66
2022/07/28 14:50:21;;;;;;;4.68;0.98;;;;;;;;;;5023270;28;20164;-66
2022/07/28 14:52:50;;;;;;;5.30;1.10;;;;;;;;;;5024892;28;20053;-65
2022/07/28 14:55:17;;;;;;;2.55;1.02;;;;;;;;;;5008521;28;20099;-65